createdAt,value
2024-05-09T00:00:38.582Z,102450.31
2024-05-09T00:01:42.439Z,102434.88
2024-05-09T00:02:44.431Z,102449.06
2024-05-09T00:03:47.186Z,102435.13
2024-05-09T00:04:49.298Z,102435.75
2024-05-09T00:05:51.193Z,102436.59
2024-05-09T00:06:53.032Z,102429.50
2024-05-09T00:07:54.983Z,102425.81
2024-05-09T00:08:56.813Z,102429.50
2024-05-09T00:09:58.627Z,102413.34
2024-05-09T00:11:00.673Z,102424.13
2024-05-09T00:12:02.643Z,102420.59
2024-05-09T00:13:04.918Z,102413.34
2024-05-09T00:14:09.619Z,102415.22
2024-05-09T00:15:11.486Z,102386.75
2024-05-09T00:16:13.357Z,102401.75
2024-05-09T00:17:15.403Z,102410.66
2024-05-09T00:18:17.656Z,102401.41
2024-05-09T00:19:19.925Z,102407.13
2024-05-09T00:20:28.114Z,102404.44
2024-05-09T00:21:35.336Z,102382.97
2024-05-09T00:22:37.157Z,102405.16
2024-05-09T00:23:39.062Z,102399.91
2024-05-09T00:24:40.941Z,102392.09
2024-05-09T00:25:44.129Z,102400.03
2024-05-09T00:26:46.184Z,102395.50
2024-05-09T00:27:48.007Z,102400.88
2024-05-09T00:28:49.933Z,102389.91
2024-05-09T00:29:51.752Z,102395.50
2024-05-09T00:30:53.678Z,102393.81
2024-05-09T00:31:55.730Z,102390.13
2024-05-09T00:32:57.857Z,102393.81
2024-05-09T00:34:00.121Z,102395.66
2024-05-09T00:35:02.085Z,102389.28
2024-05-09T00:36:04.172Z,102389.28
2024-05-09T00:37:06.090Z,102384.03
2024-05-09T00:38:08.389Z,102376.81
2024-05-09T00:39:10.381Z,102377.81
2024-05-09T00:40:18.751Z,102378.63
2024-05-09T00:41:29.024Z,102373.72
2024-05-09T00:42:30.985Z,102376.56
2024-05-09T00:43:33.796Z,102368.13
2024-05-09T00:44:35.690Z,102373.97
2024-05-09T00:45:37.627Z,102366.91
2024-05-09T00:46:39.962Z,102359.81
2024-05-09T00:47:43.442Z,102365.19
2024-05-09T00:48:45.611Z,102366.91
2024-05-09T00:49:48.766Z,102366.16
2024-05-09T00:50:51.364Z,102369.72
2024-05-09T00:51:55.599Z,102364.63
2024-05-09T00:52:57.687Z,102361.50
2024-05-09T00:53:59.845Z,102361.66
2024-05-09T00:55:01.961Z,102359.81
2024-05-09T00:56:05.084Z,102364.34
2024-05-09T00:57:07.175Z,102366.91
2024-05-09T00:58:12.284Z,102363.47
2024-05-09T00:59:14.228Z,102354.44
2024-05-09T01:00:26.103Z,102359.81
2024-05-09T01:01:33.179Z,102350.50
2024-05-09T01:02:35.543Z,102344.78
2024-05-09T01:03:37.795Z,102355.28
2024-05-09T01:04:39.766Z,102347.34
2024-05-09T01:05:43.023Z,102345.63
2024-05-09T01:06:45.151Z,102334.56
2024-05-09T01:07:47.042Z,102339.78
2024-05-09T01:08:49.054Z,102335.41
2024-05-09T01:09:50.924Z,102339.41
2024-05-09T01:10:52.968Z,102336.72
2024-05-09T01:11:55.084Z,102331.97
2024-05-09T01:12:57.106Z,102334.88
2024-05-09T01:13:59.062Z,102341.22
2024-05-09T01:15:00.908Z,102338.53
2024-05-09T01:16:03.352Z,102331.47
2024-05-09T01:17:07.397Z,102332.31
2024-05-09T01:18:13.462Z,102327.47
2024-05-09T01:19:23.741Z,102318.41
2024-05-09T01:20:36.849Z,102329.50
2024-05-09T01:21:43.992Z,102295.69
2024-05-09T01:22:47.298Z,102335.59
2024-05-09T01:23:49.216Z,102329.50
2024-05-09T01:24:52.138Z,102330.47
2024-05-09T01:25:54.094Z,102322.41
2024-05-09T01:26:55.961Z,102320.69
2024-05-09T01:27:57.798Z,102324.38
2024-05-09T01:28:59.707Z,102311.91
2024-05-09T01:30:01.570Z,102311.78
2024-05-09T01:31:03.947Z,102308.22
2024-05-09T01:32:06.236Z,102299.31
2024-05-09T01:33:10.490Z,102297.47
2024-05-09T01:34:13.852Z,102296.47
2024-05-09T01:35:15.921Z,102293.94
2024-05-09T01:36:18.430Z,102297.47
2024-05-09T01:37:20.388Z,102286.72
2024-05-09T01:38:22.313Z,102293.06
2024-05-09T01:39:24.253Z,102280.59
2024-05-09T01:40:36.173Z,102277.91
2024-05-09T01:41:40.921Z,102276.66
2024-05-09T01:42:42.851Z,102274.25
2024-05-09T01:43:44.792Z,102277.91
2024-05-09T01:44:47.029Z,102277.09
2024-05-09T01:45:48.900Z,102278.06
2024-05-09T01:46:50.793Z,102269.13
2024-05-09T01:47:52.914Z,102277.19
2024-05-09T01:48:55.249Z,102272.81
2024-05-09T01:49:57.501Z,102283.56
2024-05-09T01:50:59.507Z,102270.03
2024-05-09T01:52:01.402Z,102281.13
2024-05-09T01:53:03.399Z,102287.22
2024-05-09T01:54:06.344Z,102285.53
2024-05-09T01:55:08.379Z,102296.28
2024-05-09T01:56:10.789Z,102292.63
2024-05-09T01:57:12.752Z,102290.91
2024-05-09T01:58:14.644Z,102288.22
2024-05-09T01:59:16.528Z,102291.78
2024-05-09T02:00:26.367Z,102292.75
2024-05-09T02:01:56.039Z,102283.44
2024-05-09T02:02:59.727Z,102280.34
2024-05-09T02:04:02.090Z,102277.91
2024-05-09T02:05:04.552Z,102279.06
2024-05-09T02:06:06.783Z,102273.78
2024-05-09T02:07:08.735Z,102277.47
2024-05-09T02:08:15.296Z,102269.53
2024-05-09T02:09:17.354Z,102269.38
2024-05-09T02:10:26.156Z,102269.38
2024-05-09T02:11:40.460Z,102259.34
2024-05-09T02:12:42.384Z,102256.66
2024-05-09T02:13:44.273Z,102227.78
2024-05-09T02:14:46.204Z,102259.63
2024-05-09T02:15:52.369Z,102253.50
2024-05-09T02:16:54.348Z,102252.53
2024-05-09T02:17:56.573Z,102251.81
2024-05-09T02:18:58.864Z,102253.50
2024-05-09T02:20:00.805Z,102245.44
2024-05-09T02:21:02.755Z,102250.09
2024-05-09T02:22:04.811Z,102250.09
2024-05-09T02:23:08.502Z,102250.09
2024-05-09T02:24:10.477Z,102243.03
2024-05-09T02:25:12.822Z,102233.63
2024-05-09T02:26:14.753Z,102245.72
2024-05-09T02:27:16.671Z,102245.72
2024-05-09T02:28:21.119Z,102235.94
2024-05-09T02:29:23.037Z,102243.84
2024-05-09T02:30:34.936Z,102234.22
2024-05-09T02:31:41.443Z,102222.94
2024-05-09T02:32:43.561Z,102229.44
2024-05-09T02:33:46.119Z,102229.44
2024-05-09T02:34:48.360Z,102224.19
2024-05-09T02:35:50.284Z,102226.88
2024-05-09T02:36:56.133Z,102216.38
2024-05-09T02:37:58.046Z,102222.34
2024-05-09T02:38:59.898Z,102213.44
2024-05-09T02:40:01.746Z,102197.13
2024-05-09T02:41:03.901Z,102193.44
2024-05-09T02:42:05.889Z,102202.22
2024-05-09T02:43:10.285Z,102208.19
2024-05-09T02:44:13.322Z,102206.34
2024-05-09T02:45:15.262Z,102202.78
2024-05-09T02:46:17.132Z,102202.78
2024-05-09T02:47:19.132Z,102201.97
2024-05-09T02:48:21.450Z,102201.09
2024-05-09T02:49:23.494Z,102205.47
2024-05-09T02:50:33.792Z,102200.25
2024-05-09T02:51:40.101Z,102206.19
2024-05-09T02:52:41.944Z,102203.66
2024-05-09T02:53:43.858Z,102200.25
2024-05-09T02:54:45.834Z,102213.56
2024-05-09T02:55:47.946Z,102202.78
2024-05-09T02:56:49.856Z,102203.94
2024-05-09T02:57:51.685Z,102205.47
2024-05-09T02:58:53.605Z,102191.19
2024-05-09T02:59:55.488Z,102199.28
2024-05-09T03:00:57.441Z,102201.81
2024-05-09T03:01:59.391Z,102200.00
2024-05-09T03:03:01.630Z,102185.81
2024-05-09T03:04:03.832Z,102189.09
2024-05-09T03:05:06.023Z,102181.88
2024-05-09T03:06:07.909Z,102179.91
2024-05-09T03:07:09.760Z,102173.69
2024-05-09T03:08:11.962Z,102174.53
2024-05-09T03:09:13.924Z,102173.53
2024-05-09T03:10:22.271Z,102165.63
2024-05-09T03:11:27.744Z,102174.16
2024-05-09T03:12:29.687Z,102171.44
2024-05-09T03:13:31.948Z,102161.19
2024-05-09T03:14:33.803Z,102171.44
2024-05-09T03:15:35.884Z,102169.16
2024-05-09T03:16:38.654Z,102175.97
2024-05-09T03:17:41.582Z,102170.59
2024-05-09T03:18:44.365Z,102174.97
2024-05-09T03:19:46.655Z,102174.00
2024-05-09T03:20:48.653Z,102166.06
2024-05-09T03:21:50.473Z,102174.00
2024-05-09T03:22:55.493Z,102167.63
2024-05-09T03:23:58.642Z,102171.19
2024-05-09T03:25:00.689Z,102177.41
2024-05-09T03:26:02.574Z,102174.72
2024-05-09T03:27:04.593Z,102169.34
2024-05-09T03:28:06.691Z,102177.41
2024-05-09T03:29:08.617Z,102172.03
2024-05-09T03:30:15.433Z,102165.09
2024-05-09T03:31:20.396Z,102168.06
2024-05-09T03:32:22.328Z,102167.25
2024-05-09T03:33:24.582Z,102160.00
2024-05-09T03:34:26.725Z,102155.59
2024-05-09T03:35:28.663Z,102152.19
2024-05-09T03:36:30.552Z,102151.09
2024-05-09T03:37:32.995Z,102156.47
2024-05-09T03:38:38.880Z,102145.38
2024-05-09T03:39:40.730Z,102151.81
2024-05-09T03:40:47.045Z,102150.38
2024-05-09T03:41:49.054Z,102141.16
2024-05-09T03:42:50.861Z,102149.13
2024-05-09T03:43:52.781Z,102149.13
2024-05-09T03:44:54.629Z,102149.97
2024-05-09T03:45:56.896Z,102146.56
2024-05-09T03:46:58.955Z,102144.59
2024-05-09T03:48:01.019Z,102141.88
2024-05-09T03:49:03.027Z,102149.97
2024-05-09T03:50:05.897Z,102136.06
2024-05-09T03:51:08.027Z,102150.81
2024-05-09T03:52:09.948Z,102145.44
2024-05-09T03:53:13.386Z,102143.59
2024-05-09T03:54:15.329Z,102140.06
2024-05-09T03:55:17.480Z,102132.28
2024-05-09T03:56:19.422Z,102139.91
2024-05-09T03:57:21.302Z,102131.84
2024-05-09T03:58:23.182Z,102125.91
2024-05-09T03:59:25.068Z,102128.44
2024-05-09T04:00:35.390Z,102120.63
2024-05-09T04:01:40.660Z,102127.06
2024-05-09T04:02:43.853Z,102119.97
2024-05-09T04:03:48.527Z,102115.69
2024-05-09T04:04:50.715Z,102097.28
2024-05-09T04:05:52.736Z,102112.88
2024-05-09T04:06:54.691Z,102107.63
2024-05-09T04:07:56.549Z,102103.13
2024-05-09T04:08:58.390Z,102099.84
2024-05-09T04:10:00.255Z,102084.25
2024-05-09T04:11:02.338Z,102094.19
2024-05-09T04:12:07.427Z,102100.56
2024-05-09T04:13:11.182Z,102092.19
2024-05-09T04:14:13.090Z,102094.06
2024-05-09T04:15:15.338Z,102089.66
2024-05-09T04:16:17.275Z,102085.13
2024-05-09T04:17:19.155Z,102081.72
2024-05-09T04:18:21.144Z,102076.34
2024-05-09T04:19:23.259Z,102065.84
2024-05-09T04:20:35.841Z,102074.50
2024-05-09T04:21:41.123Z,102061.63
2024-05-09T04:22:43.057Z,102065.31
2024-05-09T04:23:45.021Z,102060.91
2024-05-09T04:24:47.673Z,102060.19
2024-05-09T04:25:49.540Z,102056.78
2024-05-09T04:26:51.477Z,102058.22
2024-05-09T04:27:55.970Z,102061.06
2024-05-09T04:28:58.308Z,102060.91
2024-05-09T04:30:00.385Z,102057.38
2024-05-09T04:31:02.379Z,102055.69
2024-05-09T04:32:05.487Z,102059.19
2024-05-09T04:33:09.968Z,102044.31
2024-05-09T04:34:13.863Z,102052.00
2024-05-09T04:35:18.427Z,102051.69
2024-05-09T04:36:20.364Z,102055.53
2024-05-09T04:37:22.162Z,102058.22
2024-05-09T04:38:24.148Z,102046.63
2024-05-09T04:39:26.121Z,102048.59
2024-05-09T04:40:33.386Z,102046.75
2024-05-09T04:41:38.825Z,102044.75
2024-05-09T04:42:43.876Z,102035.00
2024-05-09T04:43:45.956Z,102035.00
2024-05-09T04:44:48.472Z,102047.47
2024-05-09T04:45:50.380Z,102044.91
2024-05-09T04:46:52.281Z,102036.97
2024-05-09T04:47:54.946Z,102039.53
2024-05-09T04:48:57.064Z,102046.75
2024-05-09T04:49:59.305Z,102031.88
2024-05-09T04:51:02.126Z,102037.84
2024-05-09T04:52:04.305Z,102048.59
2024-05-09T04:53:08.762Z,102040.81
2024-05-09T04:54:22.219Z,102041.25
2024-05-09T04:55:32.616Z,102032.78
2024-05-09T04:56:34.525Z,102025.09
2024-05-09T04:57:36.404Z,102032.19
2024-05-09T04:58:38.292Z,102030.47
2024-05-09T04:59:40.126Z,102028.63
2024-05-09T05:00:42.157Z,102024.38
2024-05-09T05:01:44.141Z,102023.41
2024-05-09T05:02:46.128Z,102016.16
2024-05-09T05:03:48.211Z,102011.78
2024-05-09T05:04:50.288Z,102007.53
2024-05-09T05:05:52.367Z,102000.84
2024-05-09T05:06:54.259Z,102010.94
2024-05-09T05:07:56.171Z,102010.06
2024-05-09T05:08:58.228Z,102016.31
2024-05-09T05:10:00.183Z,102011.78
2024-05-09T05:11:02.195Z,102013.47
2024-05-09T05:12:24.364Z,101992.50
2024-05-09T05:13:31.678Z,102003.31
2024-05-09T05:14:33.883Z,102010.38
2024-05-09T05:15:35.737Z,102007.81
2024-05-09T05:16:37.565Z,102006.09
2024-05-09T05:17:39.617Z,102006.38
2024-05-09T05:18:41.715Z,102016.03
2024-05-09T05:19:43.659Z,102003.56
2024-05-09T05:20:45.882Z,102011.50
2024-05-09T05:21:47.810Z,102005.41
2024-05-09T05:22:49.677Z,101999.03
2024-05-09T05:23:51.562Z,101996.50
2024-05-09T05:24:53.448Z,101999.91
2024-05-09T05:25:55.690Z,102001.59
2024-05-09T05:26:57.717Z,101991.13
2024-05-09T05:27:59.549Z,101989.97
2024-05-09T05:29:01.426Z,101996.22
2024-05-09T05:30:04.615Z,101991.81
2024-05-09T05:31:07.706Z,101994.34
2024-05-09T05:32:09.685Z,101998.91
2024-05-09T05:33:13.678Z,101998.03
2024-05-09T05:34:15.730Z,101997.91
2024-05-09T05:35:17.659Z,101998.75
2024-05-09T05:36:19.566Z,101988.00
2024-05-09T05:37:21.400Z,101984.47
2024-05-09T05:38:27.265Z,101986.28
2024-05-09T05:39:30.264Z,101977.22
2024-05-09T05:40:36.686Z,101972.72
2024-05-09T05:41:40.071Z,101972.59
2024-05-09T05:42:42.099Z,101958.28
2024-05-09T05:43:44.147Z,101960.25
2024-05-09T05:44:46.141Z,101960.13
2024-05-09T05:45:48.046Z,101955.72
2024-05-09T05:46:50.967Z,101965.50
2024-05-09T05:47:54.664Z,101952.19
2024-05-09T05:48:56.861Z,101951.19
2024-05-09T05:49:58.833Z,101957.44
2024-05-09T05:51:04.209Z,101954.75
2024-05-09T05:52:06.819Z,101952.06
2024-05-09T05:53:10.434Z,101948.38
2024-05-09T05:54:12.531Z,101951.19
2024-05-09T05:55:14.530Z,101951.19
2024-05-09T05:56:16.629Z,101961.94
2024-05-09T05:57:19.186Z,101961.09
2024-05-09T05:58:21.660Z,101965.63
2024-05-09T05:59:24.186Z,101953.88
2024-05-09T06:00:34.128Z,101950.31
2024-05-09T06:01:41.739Z,101945.53
2024-05-09T06:02:43.903Z,101943.00
2024-05-09T06:03:45.988Z,101938.59
2024-05-09T06:04:48.095Z,101940.56
2024-05-09T06:05:50.070Z,101936.03
2024-05-09T06:06:52.491Z,101938.72
2024-05-09T06:07:54.478Z,101925.84
2024-05-09T06:08:56.403Z,101926.41
2024-05-09T06:09:58.260Z,101932.47
2024-05-09T06:11:00.253Z,101929.09
2024-05-09T06:12:02.283Z,101925.41
2024-05-09T06:13:04.447Z,101926.56
2024-05-09T06:14:06.414Z,101932.47
2024-05-09T06:15:08.774Z,101931.66
2024-05-09T06:16:10.598Z,101929.78
2024-05-09T06:17:12.544Z,101937.88
2024-05-09T06:18:15.601Z,101930.22
2024-05-09T06:19:19.464Z,101930.78
2024-05-09T06:20:31.265Z,101937.88
2024-05-09T06:21:37.212Z,101927.69
2024-05-09T06:22:39.101Z,101917.34
2024-05-09T06:23:48.286Z,101914.94
2024-05-09T06:24:50.231Z,101919.78
2024-05-09T06:25:52.502Z,101911.13
2024-05-09T06:26:54.392Z,101917.22
2024-05-09T06:27:56.206Z,101911.94
2024-05-09T06:28:59.000Z,101909.53
2024-05-09T06:30:00.841Z,101920.88
2024-05-09T06:31:03.073Z,101909.53
2024-05-09T06:32:05.901Z,101917.34
2024-05-09T06:33:10.617Z,101913.66
2024-05-09T06:34:14.215Z,101915.34
2024-05-09T06:35:16.294Z,101916.34
2024-05-09T06:36:19.023Z,101916.34
2024-05-09T06:37:20.928Z,101913.66
2024-05-09T06:38:22.854Z,101916.34
2024-05-09T06:39:24.938Z,101921.72
2024-05-09T06:40:35.990Z,101908.28
2024-05-09T06:41:40.683Z,101913.41
2024-05-09T06:42:42.732Z,101879.97
2024-05-09T06:43:44.603Z,101900.94
2024-05-09T06:44:46.704Z,101902.88
2024-05-09T06:45:49.623Z,101901.06
2024-05-09T06:46:51.644Z,101895.69
2024-05-09T06:47:53.816Z,101902.06
2024-05-09T06:48:56.965Z,101902.88
2024-05-09T06:49:58.933Z,101898.50
2024-05-09T06:51:01.030Z,101901.91
2024-05-09T06:52:03.140Z,101906.44
2024-05-09T06:53:05.494Z,101886.75
2024-05-09T06:54:08.627Z,101892.13
2024-05-09T06:55:10.444Z,101884.06
2024-05-09T06:56:12.401Z,101853.34
2024-05-09T06:57:14.272Z,101879.53
2024-05-09T06:58:16.215Z,101876.97
2024-05-09T06:59:18.176Z,101872.31
2024-05-09T07:00:27.521Z,101875.28
2024-05-09T07:01:36.977Z,101871.06
2024-05-09T07:02:39.149Z,101868.66
2024-05-09T07:03:41.856Z,101868.66
2024-05-09T07:04:43.867Z,101862.28
2024-05-09T07:05:46.816Z,101863.28
2024-05-09T07:06:49.651Z,101864.09
2024-05-09T07:07:51.521Z,101864.09
2024-05-09T07:08:53.955Z,101865.97
2024-05-09T07:09:55.894Z,101861.41
2024-05-09T07:10:57.867Z,101862.28
2024-05-09T07:11:59.867Z,101845.69
2024-05-09T07:13:01.839Z,101849.81
2024-05-09T07:14:03.948Z,101859.59
2024-05-09T07:15:05.971Z,101848.97
2024-05-09T07:16:07.806Z,101856.91
2024-05-09T07:17:09.744Z,101847.13
2024-05-09T07:18:17.665Z,101849.81
2024-05-09T07:19:20.760Z,101849.53
2024-05-09T07:20:31.860Z,101843.28
2024-05-09T07:21:36.604Z,101843.88
2024-05-09T07:22:38.577Z,101836.78
2024-05-09T07:23:41.398Z,101830.00
2024-05-09T07:24:44.376Z,101839.47
2024-05-09T07:25:46.393Z,101813.28
2024-05-09T07:26:48.479Z,101830.69
2024-05-09T07:27:50.323Z,101835.38
2024-05-09T07:28:52.242Z,101836.09
2024-05-09T07:29:54.719Z,101828.00
2024-05-09T07:30:56.540Z,101830.00
2024-05-09T07:31:58.582Z,101825.31
2024-05-09T07:33:01.002Z,101829.72
2024-05-09T07:34:03.417Z,101836.78
2024-05-09T07:35:05.680Z,101826.03
2024-05-09T07:36:07.761Z,101821.63
2024-05-09T07:37:12.825Z,101832.25
2024-05-09T07:38:14.957Z,101823.19
2024-05-09T07:39:17.010Z,101817.78
2024-05-09T07:40:28.532Z,101815.97
2024-05-09T07:41:37.695Z,101812.00
2024-05-09T07:42:39.742Z,101808.44
2024-05-09T07:43:41.581Z,101801.38
2024-05-09T07:44:43.495Z,101798.84
2024-05-09T07:45:52.419Z,101790.88
2024-05-09T07:53:30.349Z,101776.16
2024-05-09T07:53:47.266Z,101773.03
2024-05-09T07:54:52.887Z,101754.63
2024-05-09T07:55:56.365Z,101762.41
2024-05-09T07:56:58.817Z,101763.41
2024-05-09T07:58:00.810Z,101765.25
2024-05-09T07:59:02.673Z,101757.19
2024-05-09T08:00:06.510Z,101757.47
2024-05-09T08:01:08.816Z,101745.16
2024-05-09T08:02:11.698Z,101758.19
2024-05-09T08:03:13.782Z,101745.56
2024-05-09T08:04:15.715Z,101743.72
2024-05-09T08:05:17.760Z,101745.56
2024-05-09T08:06:19.754Z,101749.13
2024-05-09T08:07:21.608Z,101746.44
2024-05-09T08:08:23.498Z,101753.50
2024-05-09T08:09:25.426Z,101735.66
2024-05-09T08:10:29.060Z,101743.72
2024-05-09T08:11:32.568Z,101741.75
2024-05-09T08:12:34.668Z,101733.66
2024-05-09T08:13:36.967Z,101727.88
2024-05-09T08:14:38.943Z,101733.66
2024-05-09T08:15:40.996Z,101725.59
2024-05-09T08:16:42.996Z,101727.28
2024-05-09T08:17:44.943Z,101724.59
2024-05-09T08:18:46.993Z,101719.53
2024-05-09T08:19:48.944Z,101720.91
2024-05-09T08:20:51.204Z,101717.38
2024-05-09T08:21:53.047Z,101713.13
2024-05-09T08:22:54.969Z,101705.19
2024-05-09T08:23:56.841Z,101716.38
2024-05-09T08:24:59.191Z,101715.53
2024-05-09T08:26:01.058Z,101707.31
2024-05-09T08:27:02.921Z,101708.16
2024-05-09T08:28:05.368Z,101701.91
2024-05-09T08:29:07.354Z,101695.72
2024-05-09T08:30:15.583Z,101693.84
2024-05-09T08:31:23.720Z,101696.97
2024-05-09T08:32:27.530Z,101690.03
2024-05-09T08:33:32.251Z,101693.56
2024-05-09T08:34:34.328Z,101701.63
2024-05-09T08:35:36.578Z,101692.16
2024-05-09T08:36:39.953Z,101687.63
2024-05-09T08:37:43.686Z,101689.16
2024-05-09T08:38:45.743Z,101678.41
2024-05-09T08:39:47.685Z,101683.78
2024-05-09T08:40:52.415Z,101679.25
2024-05-09T08:41:54.283Z,101686.47
2024-05-09T08:42:57.682Z,101688.34
2024-05-09T08:43:59.599Z,101681.25
2024-05-09T08:45:02.019Z,101682.94
2024-05-09T08:46:06.312Z,101684.66
2024-05-09T08:47:09.983Z,101668.50
2024-05-09T08:48:13.651Z,101665.81
2024-05-09T08:49:16.535Z,101662.97
2024-05-09T08:50:31.411Z,101662.13
2024-05-09T08:51:39.502Z,101658.00
2024-05-09T08:52:41.492Z,101654.63
2024-05-09T08:53:43.573Z,101662.81
2024-05-09T08:54:45.897Z,101656.03
2024-05-09T08:55:51.169Z,101652.34
2024-05-09T08:56:53.477Z,101650.78
2024-05-09T08:57:56.138Z,101647.28
2024-05-09T08:59:01.448Z,101652.47
2024-05-09T09:00:09.985Z,101650.34
2024-05-09T09:01:14.572Z,101651.06
2024-05-09T09:02:18.368Z,101645.28
2024-05-09T09:03:24.751Z,101636.50
2024-05-09T09:04:28.487Z,101642.97
2024-05-09T09:05:31.641Z,101633.81
2024-05-09T09:06:34.950Z,101635.06
2024-05-09T09:07:40.347Z,101640.47
2024-05-09T09:08:42.525Z,101635.91
2024-05-09T09:09:47.162Z,101636.91
2024-05-09T09:10:49.364Z,101631.66
2024-05-09T09:11:51.272Z,101628.81
2024-05-09T09:13:00.184Z,101618.66
2024-05-09T09:14:02.034Z,101626.84
2024-05-09T09:15:04.083Z,101621.47
2024-05-09T09:16:06.900Z,101616.38
2024-05-09T09:17:15.665Z,101614.53
2024-05-09T09:18:18.706Z,101616.06
2024-05-09T09:19:23.266Z,101622.44
2024-05-09T09:20:34.103Z,101613.38
2024-05-09T09:21:38.623Z,101619.47
2024-05-09T09:22:40.510Z,101614.06
2024-05-09T09:23:43.528Z,101599.53
2024-05-09T09:24:45.772Z,101602.63
2024-05-09T09:25:47.691Z,101598.22
2024-05-09T09:26:49.566Z,101597.22
2024-05-09T09:27:51.717Z,101596.53
2024-05-09T09:28:53.811Z,101593.72
2024-05-09T09:29:57.086Z,101587.06
2024-05-09T09:31:05.469Z,101585.78
2024-05-09T09:32:08.705Z,101577.41
2024-05-09T09:33:11.987Z,101577.41
2024-05-09T09:34:14.219Z,101571.03
2024-05-09T09:35:17.045Z,101574.72
2024-05-09T09:36:19.335Z,101574.72
2024-05-09T09:37:28.502Z,101571.19
2024-05-09T09:38:31.576Z,101577.09
2024-05-09T09:39:34.996Z,101577.25
2024-05-09T09:40:43.004Z,101577.25
2024-05-09T09:41:49.009Z,101572.41
2024-05-09T09:42:57.306Z,101571.72
2024-05-09T09:44:00.963Z,101577.78
2024-05-09T09:45:05.544Z,101578.78
2024-05-09T09:46:11.814Z,101570.72
2024-05-09T09:47:16.682Z,101579.47
2024-05-09T09:48:20.392Z,101573.41
2024-05-09T09:49:27.264Z,101569.88
2024-05-09T09:50:34.304Z,101565.19
2024-05-09T09:51:38.014Z,101563.34
2024-05-09T09:52:40.956Z,101560.63
2024-05-09T09:53:44.183Z,101556.25
2024-05-09T09:54:48.487Z,101555.44
2024-05-09T09:55:52.291Z,101553.56
2024-05-09T09:56:55.817Z,101550.88
2024-05-09T09:57:58.082Z,101547.19
2024-05-09T09:59:03.447Z,101550.88
2024-05-09T10:00:09.561Z,101546.34
2024-05-09T10:01:17.415Z,101552.28
2024-05-09T10:02:19.599Z,101539.81
2024-05-09T10:03:22.831Z,101542.50
2024-05-09T10:04:25.180Z,101536.59
2024-05-09T10:05:28.647Z,101541.66
2024-05-09T10:06:33.460Z,101500.88
2024-05-09T10:07:41.798Z,101535.72
2024-05-09T10:08:46.971Z,101535.28
2024-05-09T10:09:48.939Z,101539.53
2024-05-09T10:10:51.046Z,101531.63
2024-05-09T10:11:59.688Z,101530.75
2024-05-09T10:13:09.091Z,101521.69
2024-05-09T10:14:11.434Z,101524.25
2024-05-09T10:15:13.262Z,101521.56
2024-05-09T10:16:21.468Z,101516.31
2024-05-09T10:17:23.477Z,101509.50
2024-05-09T10:18:36.691Z,101514.16
2024-05-09T10:19:38.751Z,101511.78
2024-05-09T10:20:45.323Z,101510.19
2024-05-09T10:21:47.412Z,101512.31
2024-05-09T10:22:50.601Z,101506.09
2024-05-09T10:24:07.147Z,101505.78
2024-05-09T10:25:09.713Z,101503.78
2024-05-09T10:26:11.665Z,101507.63
2024-05-09T10:27:13.527Z,101501.53
2024-05-09T10:28:15.798Z,101491.63
2024-05-09T10:29:18.990Z,101493.47
2024-05-09T10:31:29.869Z,101493.34
2024-05-09T10:32:39.226Z,101485.38
2024-05-09T10:33:50.331Z,101487.94
2024-05-09T10:35:09.065Z,101491.88
2024-05-09T10:36:12.361Z,101495.25
2024-05-09T10:37:14.652Z,101497.28
2024-05-09T10:38:17.947Z,101497.56
2024-05-09T10:39:21.199Z,101495.72
2024-05-09T10:40:28.788Z,101489.34
2024-05-09T10:41:33.496Z,101489.03
2024-05-09T10:42:38.987Z,101480.13
2024-05-09T10:43:42.024Z,101472.88
2024-05-09T10:44:43.915Z,101485.31
2024-05-09T10:45:45.871Z,101480.81
2024-05-09T10:46:48.173Z,101462.41
2024-05-09T10:47:50.133Z,101475.41
2024-05-09T10:48:52.599Z,101471.72
2024-05-09T10:49:55.966Z,101465.78
2024-05-09T10:50:57.837Z,101463.66
2024-05-09T10:51:59.825Z,101461.78
2024-05-09T10:53:02.706Z,101463.66
2024-05-09T10:54:05.777Z,101450.19
2024-05-09T10:55:07.679Z,101461.66
2024-05-09T10:56:10.340Z,101453.72
2024-05-09T10:57:12.365Z,101463.34
2024-05-09T10:58:18.011Z,101455.88
2024-05-09T10:59:20.053Z,101463.16
2024-05-09T11:00:27.785Z,101463.16
2024-05-09T11:01:35.591Z,101445.31
2024-05-09T11:02:37.818Z,101444.19
2024-05-09T11:03:40.403Z,101444.19
2024-05-09T11:04:45.309Z,101450.56
2024-05-09T11:05:47.646Z,101452.25
2024-05-09T11:06:49.772Z,101442.31
2024-05-09T11:07:51.791Z,101444.19
2024-05-09T11:08:53.795Z,101438.78
2024-05-09T11:09:55.740Z,101434.25
2024-05-09T11:10:59.675Z,101436.09
2024-05-09T11:12:02.491Z,101435.94
2024-05-09T11:13:04.647Z,101428.72
2024-05-09T11:14:13.319Z,101435.09
2024-05-09T11:15:16.592Z,101431.22
2024-05-09T11:16:20.783Z,101422.31
2024-05-09T11:17:23.303Z,101418.63
2024-05-09T11:18:28.156Z,101421.47
2024-05-09T11:19:42.187Z,101414.94
2024-05-09T11:20:44.314Z,101404.47
2024-05-09T11:21:51.427Z,101380.50
2024-05-09T11:22:53.312Z,101409.22
2024-05-09T11:23:55.426Z,101398.78
2024-05-09T11:24:57.438Z,101394.84
2024-05-09T11:25:59.464Z,101405.50
2024-05-09T11:27:06.093Z,101401.19
2024-05-09T11:28:08.007Z,101404.09
2024-05-09T11:29:09.868Z,101401.09
2024-05-09T11:30:26.716Z,101395.41
2024-05-09T11:31:35.220Z,101398.31
2024-05-09T11:32:37.824Z,101386.69
2024-05-09T11:33:43.334Z,101386.00
2024-05-09T11:34:45.277Z,101384.00
2024-05-09T11:35:47.399Z,101382.31
2024-05-09T11:36:49.348Z,101384.00
2024-05-09T11:37:51.256Z,101382.31
2024-05-09T11:38:53.102Z,101386.00
2024-05-09T11:39:55.097Z,101381.47
2024-05-09T11:40:56.998Z,101368.47
2024-05-09T11:41:58.832Z,101382.31
2024-05-09T11:43:00.836Z,101368.84
2024-05-09T11:44:02.696Z,101376.09
2024-05-09T11:45:04.810Z,101371.53
2024-05-09T11:46:06.791Z,101374.22
2024-05-09T11:47:08.777Z,101374.22
2024-05-09T11:48:11.003Z,101370.53
2024-05-09T11:49:13.174Z,101369.53
2024-05-09T11:50:22.589Z,101376.59
2024-05-09T11:51:31.306Z,101364.69
2024-05-09T11:52:33.235Z,101362.81
2024-05-09T11:53:35.055Z,101366.53
2024-05-09T11:54:37.242Z,101372.91
2024-05-09T11:55:39.089Z,101352.00
2024-05-09T11:56:41.003Z,101352.69
2024-05-09T11:57:42.918Z,101365.00
2024-05-09T11:58:44.785Z,101354.22
2024-05-09T11:59:46.878Z,101352.53
2024-05-09T12:00:48.947Z,101353.22
2024-05-09T12:01:50.915Z,101349.69
2024-05-09T12:02:54.357Z,101353.06
2024-05-09T12:03:56.481Z,101346.84
2024-05-09T12:04:58.685Z,101350.38
2024-05-09T12:06:01.306Z,101345.97
2024-05-09T12:07:03.470Z,101339.59
2024-05-09T12:08:06.184Z,101340.59
2024-05-09T12:09:08.170Z,101340.59
2024-05-09T12:10:16.550Z,101339.59